createdAt,value
2018-05-26T00:00:52.614Z,15.20
2018-05-26T00:03:27.340Z,15.20
2018-05-26T00:06:02.695Z,15.30
2018-05-26T00:08:37.230Z,15.20
2018-05-26T00:11:12.557Z,15.20
2018-05-26T00:13:47.910Z,15.20
2018-05-26T00:16:22.921Z,15.20
2018-05-26T00:18:58.257Z,15.10
2018-05-26T00:21:33.273Z,15.00
2018-05-26T00:24:08.344Z,15.00
2018-05-26T00:26:43.896Z,15.00
2018-05-26T00:29:20.352Z,14.90
2018-05-26T00:31:55.275Z,14.80
2018-05-26T00:34:29.518Z,14.80
2018-05-26T00:37:04.617Z,14.70
2018-05-26T00:39:40.184Z,14.70
2018-05-26T00:42:15.028Z,14.70
2018-05-26T00:44:50.536Z,14.70
2018-05-26T00:47:25.378Z,14.70
2018-05-26T00:50:01.615Z,14.70
2018-05-26T00:52:36.658Z,14.70
2018-05-26T00:55:13.140Z,14.70
2018-05-26T00:57:48.394Z,14.70
2018-05-26T01:00:23.835Z,14.70
2018-05-26T01:02:59.379Z,14.70
2018-05-26T01:05:35.307Z,14.70
2018-05-26T01:08:09.940Z,14.50
2018-05-26T01:10:44.866Z,14.50
2018-05-26T01:13:19.363Z,14.50
2018-05-26T01:15:55.600Z,14.50
2018-05-26T01:18:30.596Z,14.50
2018-05-26T01:21:06.127Z,14.40
2018-05-26T01:23:41.165Z,14.30
2018-05-26T01:26:15.801Z,14.30
2018-05-26T01:28:50.407Z,14.30
2018-05-26T01:31:24.104Z,14.40
2018-05-26T01:33:58.235Z,14.30
2018-05-26T01:36:32.843Z,14.10
2018-05-26T01:39:06.757Z,13.90
2018-05-26T01:41:41.186Z,13.90
2018-05-26T01:44:15.694Z,13.80
2018-05-26T01:46:51.779Z,13.80
2018-05-26T01:49:25.650Z,13.80
2018-05-26T01:52:00.491Z,13.80
2018-05-26T01:54:35.530Z,13.80
2018-05-26T01:57:11.473Z,13.70
2018-05-26T01:59:45.486Z,13.70
2018-05-26T02:02:19.492Z,13.70
2018-05-26T02:04:54.265Z,13.70
2018-05-26T02:07:28.742Z,13.70
2018-05-26T02:10:03.887Z,13.70
2018-05-26T02:12:39.414Z,13.80
2018-05-26T02:15:14.152Z,13.70
2018-05-26T02:17:48.476Z,13.80
2018-05-26T02:20:22.802Z,13.70
2018-05-26T02:22:57.011Z,13.70
2018-05-26T02:25:32.350Z,13.70
2018-05-26T02:28:06.931Z,13.50
2018-05-26T02:30:42.623Z,13.50
2018-05-26T02:33:16.524Z,13.50
2018-05-26T02:35:51.258Z,13.40
2018-05-26T02:38:25.555Z,13.40
2018-05-26T02:41:00.384Z,13.40
2018-05-26T02:43:35.499Z,13.40
2018-05-26T02:46:10.162Z,13.50
2018-05-26T02:48:45.700Z,13.40
2018-05-26T02:51:21.070Z,13.30
2018-05-26T02:53:55.964Z,13.30
2018-05-26T02:56:30.917Z,13.20
2018-05-26T02:59:06.236Z,13.20
2018-05-26T03:01:40.566Z,13.10
2018-05-26T03:04:21.507Z,13.10
2018-05-26T03:07:04.114Z,13.20
2018-05-26T03:09:44.487Z,13.20
2018-05-26T03:12:23.943Z,13.20
2018-05-26T03:14:58.346Z,13.20
2018-05-26T03:17:34.306Z,13.10
2018-05-26T03:20:08.033Z,13.10
2018-05-26T03:22:42.989Z,13.20
2018-05-26T03:25:17.812Z,13.20
2018-05-26T03:27:52.929Z,13.20
2018-05-26T03:30:27.534Z,13.20
2018-05-26T03:33:03.073Z,13.30
2018-05-26T03:35:38.741Z,13.30
2018-05-26T03:38:13.026Z,13.30
2018-05-26T03:40:48.263Z,13.20
2018-05-26T03:43:23.301Z,13.20
2018-05-26T03:45:58.233Z,13.20
2018-05-26T03:48:33.186Z,13.20
2018-05-26T03:51:10.262Z,13.20
2018-05-26T03:53:45.176Z,13.10
2018-05-26T03:56:32.203Z,13.10
2018-05-26T03:59:17.074Z,13.10
2018-05-26T04:01:51.192Z,13.10
2018-05-26T04:04:25.912Z,13.30
2018-05-26T04:07:00.636Z,13.30
2018-05-26T04:09:34.946Z,13.30
2018-05-26T04:12:09.678Z,13.40
2018-05-26T04:14:45.095Z,13.60
2018-05-26T04:17:20.264Z,13.60
2018-05-26T04:19:54.267Z,13.70
2018-05-26T04:22:28.160Z,13.70
2018-05-26T04:25:02.288Z,13.80
2018-05-26T04:27:37.700Z,13.90
2018-05-26T04:30:13.790Z,14.00
2018-05-26T04:32:48.393Z,14.00
2018-05-26T04:35:24.365Z,14.10
2018-05-26T04:37:58.497Z,14.10
2018-05-26T04:40:34.540Z,14.20
2018-05-26T04:43:08.797Z,14.20
2018-05-26T04:45:42.631Z,14.30
2018-05-26T04:48:17.260Z,14.60
2018-05-26T04:50:52.089Z,14.60
2018-05-26T04:53:26.787Z,14.80
2018-05-26T04:56:01.160Z,14.80
2018-05-26T04:58:35.052Z,14.90
2018-05-26T05:01:15.907Z,15.00
2018-05-26T05:03:49.720Z,15.10
2018-05-26T05:06:25.259Z,15.30
2018-05-26T05:08:59.586Z,15.40
2018-05-26T05:11:34.830Z,15.60
2018-05-26T05:14:08.738Z,15.60
2018-05-26T05:16:44.702Z,15.70
2018-05-26T05:19:22.167Z,15.90
2018-05-26T05:21:57.307Z,16.00
2018-05-26T05:24:33.660Z,16.20
2018-05-26T05:27:09.721Z,16.30
2018-05-26T05:29:44.442Z,16.20
2018-05-26T05:32:19.675Z,16.40
2018-05-26T05:34:54.712Z,16.50
2018-05-26T05:37:30.011Z,16.60
2018-05-26T05:40:04.864Z,16.70
2018-05-26T05:42:39.637Z,16.70
2018-05-26T05:45:13.518Z,16.70
2018-05-26T05:47:47.326Z,16.90
2018-05-26T05:50:22.262Z,17.00
2018-05-26T05:52:56.719Z,16.90
2018-05-26T05:55:32.439Z,17.10
2018-05-26T05:58:06.236Z,17.10
2018-05-26T06:00:41.804Z,17.50
2018-05-26T06:03:15.883Z,17.40
2018-05-26T06:05:50.508Z,17.40
2018-05-26T06:08:24.635Z,17.40
2018-05-26T06:10:59.215Z,17.50
2018-05-26T06:13:33.768Z,17.50
2018-05-26T06:16:08.495Z,17.50
2018-05-26T06:18:43.834Z,17.50
2018-05-26T06:21:19.371Z,17.50
2018-05-26T06:23:53.964Z,17.50
2018-05-26T06:26:28.560Z,17.50
2018-05-26T06:29:04.372Z,17.50
2018-05-26T06:31:43.227Z,17.60
2018-05-26T06:34:19.667Z,17.60
2018-05-26T06:36:54.186Z,17.60
2018-05-26T06:39:28.216Z,17.70
2018-05-26T06:42:03.020Z,17.90
2018-05-26T06:44:37.442Z,18.20
2018-05-26T06:47:11.772Z,18.20
2018-05-26T06:49:46.091Z,18.50
2018-05-26T06:52:23.254Z,18.40
2018-05-26T06:54:59.497Z,19.00
2018-05-26T06:57:35.595Z,19.00
2018-05-26T07:00:14.749Z,19.30
2018-05-26T07:02:51.136Z,19.40
2018-05-26T07:05:25.621Z,19.40
2018-05-26T07:08:03.382Z,19.70
2018-05-26T07:10:41.371Z,19.60
2018-05-26T07:13:18.110Z,19.90
2018-05-26T07:15:52.990Z,19.90
2018-05-26T07:18:28.320Z,20.20
2018-05-26T07:21:02.937Z,20.30
2018-05-26T07:23:37.796Z,20.30
2018-05-26T07:26:12.730Z,20.80
2018-05-26T07:28:47.963Z,20.90
2018-05-26T07:31:25.171Z,20.90
2018-05-26T07:34:00.063Z,21.00
2018-05-26T07:36:35.502Z,21.20
2018-05-26T07:39:10.652Z,21.40
2018-05-26T07:41:44.460Z,21.40
2018-05-26T07:44:19.172Z,21.60
2018-05-26T07:47:01.594Z,21.60
2018-05-26T07:49:36.810Z,22.10
2018-05-26T07:52:13.300Z,22.20
2018-05-26T07:54:50.747Z,22.30
2018-05-26T07:57:24.479Z,22.30
2018-05-26T08:00:00.611Z,22.90
2018-05-26T08:02:35.561Z,23.00
2018-05-26T08:05:10.925Z,23.20
2018-05-26T08:07:45.579Z,23.50
2018-05-26T08:10:20.055Z,23.50
2018-05-26T08:12:54.486Z,23.70
2018-05-26T08:15:28.926Z,23.70
2018-05-26T08:18:02.923Z,23.90
2018-05-26T08:20:36.929Z,24.20
2018-05-26T08:23:11.215Z,24.40
2018-05-26T08:25:45.758Z,24.50
2018-05-26T08:28:22.343Z,24.30
2018-05-26T08:30:56.511Z,24.30
2018-05-26T08:33:31.540Z,24.10
2018-05-26T08:36:05.910Z,24.20
2018-05-26T08:38:40.402Z,24.20
2018-05-26T08:41:15.077Z,24.30
2018-05-26T08:43:49.457Z,24.20
2018-05-26T08:46:23.962Z,24.20
2018-05-26T08:48:59.128Z,24.40
2018-05-26T08:51:35.163Z,24.60
2018-05-26T08:54:09.493Z,25.00
2018-05-26T08:56:44.414Z,25.00
2018-05-26T08:59:18.439Z,25.40
2018-05-26T09:01:53.056Z,25.80
2018-05-26T09:04:26.755Z,26.20
2018-05-26T09:07:02.724Z,26.30
2018-05-26T09:09:39.391Z,26.40
2018-05-26T09:12:13.743Z,26.30
2018-05-26T09:14:48.315Z,26.60
2018-05-26T09:17:23.037Z,26.90
2018-05-26T09:19:57.597Z,26.90
2018-05-26T09:22:32.124Z,27.50
2018-05-26T09:25:06.277Z,27.50
2018-05-26T09:27:41.660Z,27.60
2018-05-26T09:30:15.476Z,27.60
2018-05-26T09:32:51.006Z,27.80
2018-05-26T09:35:25.509Z,28.30
2018-05-26T09:38:00.505Z,28.50
2018-05-26T09:40:35.279Z,28.60
2018-05-26T09:43:09.798Z,29.00
2018-05-26T09:45:43.899Z,28.90
2018-05-26T09:48:17.597Z,29.00
2018-05-26T09:50:54.271Z,28.60
2018-05-26T09:53:28.798Z,28.60
2018-05-26T09:56:03.436Z,28.80
2018-05-26T09:58:37.750Z,29.10
2018-05-26T10:01:12.555Z,29.00
2018-05-26T10:03:47.079Z,28.90
2018-05-26T10:06:22.133Z,28.80
2018-05-26T10:08:56.531Z,29.70
2018-05-26T10:11:32.185Z,29.30
2018-05-26T10:14:06.228Z,29.30
2018-05-26T10:16:41.838Z,29.70
2018-05-26T10:19:16.058Z,29.70
2018-05-26T10:21:50.680Z,30.10
2018-05-26T10:24:25.193Z,30.30
2018-05-26T10:27:00.248Z,30.20
2018-05-26T10:29:34.647Z,30.40
2018-05-26T10:32:09.703Z,30.30
2018-05-26T10:34:43.390Z,30.30
2018-05-26T10:37:17.400Z,30.50
2018-05-26T10:39:53.236Z,30.20
2018-05-26T10:42:28.567Z,30.30
2018-05-26T10:45:03.203Z,30.00
2018-05-26T10:47:36.910Z,29.90
2018-05-26T10:50:12.171Z,29.60
2018-05-26T10:52:46.893Z,29.50
2018-05-26T10:55:20.863Z,29.50
2018-05-26T10:57:55.325Z,30.20
2018-05-26T11:00:29.933Z,30.20
2018-05-26T11:03:04.747Z,30.10
2018-05-26T11:05:39.182Z,30.40
2018-05-26T11:08:13.034Z,30.40
2018-05-26T11:10:47.095Z,30.80
2018-05-26T11:13:21.898Z,30.70
2018-05-26T11:15:55.728Z,30.70
2018-05-26T11:18:30.335Z,30.90
2018-05-26T11:21:04.534Z,30.90
2018-05-26T11:23:39.415Z,31.30
2018-05-26T11:26:14.469Z,31.50
2018-05-26T11:28:49.052Z,31.20
2018-05-26T11:31:23.234Z,31.20
2018-05-26T11:33:57.875Z,31.90
2018-05-26T11:36:32.110Z,31.90
2018-05-26T11:39:07.868Z,32.00
2018-05-26T11:41:41.907Z,32.00
2018-05-26T11:44:16.132Z,32.60
2018-05-26T11:46:50.141Z,32.60
2018-05-26T11:49:24.981Z,32.00
2018-05-26T11:51:59.632Z,31.90
2018-05-26T11:54:34.552Z,32.00
2018-05-26T11:57:08.500Z,32.00
2018-05-26T11:59:43.288Z,32.30
2018-05-26T12:02:18.034Z,32.40
2018-05-26T12:04:51.782Z,32.50
2018-05-26T12:07:26.349Z,32.70
2018-05-26T12:10:01.883Z,33.30
2018-05-26T12:12:36.300Z,33.90
2018-05-26T12:15:11.551Z,34.00
2018-05-26T12:17:45.314Z,34.00
2018-05-26T12:20:22.956Z,33.90
2018-05-26T12:22:56.760Z,33.90
2018-05-26T12:25:30.684Z,34.20
2018-05-26T12:28:05.326Z,34.60
2018-05-26T12:30:41.118Z,34.20
2018-05-26T12:33:16.427Z,33.40
2018-05-26T12:44:53.226Z,35.40
2018-05-26T12:47:27.094Z,35.40
2018-05-26T12:50:01.612Z,36.20
2018-05-26T12:52:36.135Z,37.30
2018-05-26T12:58:12.206Z,36.90
2018-05-26T13:00:46.624Z,36.80
2018-05-26T13:03:21.587Z,37.80
2018-05-26T13:05:55.970Z,38.30
2018-05-26T13:08:31.117Z,38.40
2018-05-26T13:11:05.315Z,38.40
2018-05-26T13:13:40.895Z,38.00
2018-05-26T13:16:15.414Z,38.10
2018-05-26T13:18:49.464Z,38.00
2018-05-26T13:21:24.432Z,38.30
2018-05-26T13:23:59.046Z,38.30
2018-05-26T13:26:34.279Z,39.10
2018-05-26T13:29:09.626Z,38.70
2018-05-26T13:31:43.660Z,38.70
2018-05-26T13:34:17.642Z,38.70
2018-05-26T13:36:52.482Z,38.70
2018-05-26T13:39:27.708Z,39.40
2018-05-26T13:42:02.968Z,39.40
2018-05-26T13:44:37.578Z,39.80
2018-05-26T13:47:11.778Z,39.70
2018-05-26T13:49:45.702Z,39.70
2018-05-26T14:25:26.969Z,40.70
2018-05-26T14:28:00.695Z,40.60
2018-05-26T14:30:34.408Z,41.10
2018-05-26T14:33:10.822Z,41.10
2018-05-26T14:35:45.435Z,40.80
2018-05-26T14:38:20.283Z,41.00
2018-05-26T14:40:54.998Z,41.00
2018-05-26T14:43:29.939Z,40.80
2018-05-26T14:46:03.930Z,40.70
2018-05-26T14:48:38.981Z,39.90
2018-05-26T14:51:12.803Z,39.90
2018-05-26T14:53:47.876Z,40.70
2018-05-26T14:56:22.432Z,40.80
2018-05-26T14:58:57.150Z,41.00
2018-05-26T15:01:31.875Z,41.00
2018-05-26T15:04:05.573Z,40.90
2018-05-26T15:06:40.404Z,39.00
2018-05-26T15:09:14.406Z,38.90
2018-05-26T15:11:48.230Z,38.00
2018-05-26T15:14:22.436Z,37.00
2018-05-26T15:16:56.950Z,34.30
2018-05-26T15:19:31.234Z,33.50
2018-05-26T15:22:05.690Z,33.30
2018-05-26T15:24:40.099Z,33.00
2018-05-26T15:27:14.419Z,33.00
2018-05-26T15:29:48.952Z,32.10
2018-05-26T15:32:23.274Z,31.50
2018-05-26T15:34:59.726Z,31.20
2018-05-26T15:37:34.556Z,30.80
2018-05-26T15:40:08.666Z,30.80
2018-05-26T15:42:43.209Z,30.10
2018-05-26T15:45:17.702Z,30.00
2018-05-26T15:47:51.515Z,29.90
2018-05-26T15:50:25.518Z,30.00
2018-05-26T15:53:00.802Z,30.20
2018-05-26T15:55:34.453Z,30.20
2018-05-26T15:58:09.078Z,29.90
2018-05-26T16:00:43.923Z,30.00
2018-05-26T16:03:17.593Z,29.80
2018-05-26T16:05:53.579Z,29.40
2018-05-26T16:08:27.777Z,29.40
2018-05-26T16:11:01.782Z,29.50
2018-05-26T16:13:36.530Z,29.60
2018-05-26T16:16:11.767Z,29.70
2018-05-26T16:18:45.561Z,29.60
2018-05-26T16:21:21.531Z,29.60
2018-05-26T16:23:55.419Z,29.60
2018-05-26T16:26:29.119Z,29.60
2018-05-26T16:29:04.354Z,29.70
2018-05-26T16:31:38.580Z,29.60
2018-05-26T16:34:13.190Z,29.70
2018-05-26T16:36:48.122Z,29.60
2018-05-26T16:39:22.446Z,29.50
2018-05-26T16:41:56.550Z,29.00
2018-05-26T16:44:31.487Z,28.40
2018-05-26T16:47:05.693Z,28.40
2018-05-26T16:49:39.729Z,28.40
2018-05-26T16:52:14.751Z,28.60
2018-05-26T16:54:48.653Z,28.60
2018-05-26T16:57:23.292Z,29.20
2018-05-26T16:59:57.986Z,29.50
2018-05-26T17:02:32.774Z,30.00
2018-05-26T17:05:06.286Z,30.10
2018-05-26T17:07:40.340Z,30.60
2018-05-26T17:10:14.470Z,30.90
2018-05-26T17:12:52.034Z,30.90
2018-05-26T17:15:27.195Z,30.70
2018-05-26T17:18:03.015Z,30.80
2018-05-26T17:20:37.405Z,30.90
2018-05-26T17:23:11.795Z,31.20
2018-05-26T17:25:45.310Z,31.20
2018-05-26T17:28:18.792Z,31.70
2018-05-26T17:30:52.345Z,31.90
2018-05-26T17:33:27.430Z,32.20
2018-05-26T17:36:01.685Z,32.30
2018-05-26T17:38:35.935Z,32.10
2018-05-26T17:41:10.319Z,31.60
2018-05-26T17:43:44.722Z,31.40
2018-05-26T17:46:19.061Z,31.00
2018-05-26T17:48:52.773Z,31.00
2018-05-26T17:51:26.256Z,30.50
2018-05-26T17:54:00.541Z,29.50
2018-05-26T17:56:34.936Z,29.10
2018-05-26T17:59:08.437Z,29.00
2018-05-26T18:01:42.695Z,28.70
2018-05-26T18:04:17.093Z,28.10
2018-05-26T18:06:51.377Z,27.80
2018-05-26T18:09:25.639Z,27.70
2018-05-26T18:12:00.005Z,27.40
2018-05-26T18:14:34.264Z,27.40
2018-05-26T18:17:10.698Z,27.20
2018-05-26T18:19:45.178Z,26.90
2018-05-26T18:22:20.005Z,26.90
2018-05-26T18:24:55.154Z,26.60
2018-05-26T18:27:30.493Z,26.40
2018-05-26T18:30:04.600Z,26.40
2018-05-26T18:32:40.378Z,26.10
2018-05-26T18:35:14.460Z,26.00
2018-05-26T18:37:48.671Z,25.80
2018-05-26T18:40:23.882Z,25.50
2018-05-26T18:42:57.555Z,25.50
2018-05-26T18:45:31.620Z,25.40
2018-05-26T18:48:05.229Z,25.30
2018-05-26T18:50:40.059Z,24.90
2018-05-26T18:53:14.673Z,24.80
2018-05-26T18:55:49.914Z,24.40
2018-05-26T18:58:25.358Z,24.20
2018-05-26T19:01:02.339Z,23.90
2018-05-26T19:03:36.775Z,23.70
2018-05-26T19:06:11.338Z,23.50
2018-05-26T19:08:45.799Z,23.20
2018-05-26T19:11:20.246Z,23.20
2018-05-26T19:13:54.319Z,23.00
2018-05-26T19:16:28.029Z,22.80
2018-05-26T19:19:02.656Z,22.60
2018-05-26T19:21:36.557Z,22.40
2018-05-26T19:24:12.001Z,22.00
2018-05-26T19:26:45.659Z,21.90
2018-05-26T19:29:21.469Z,21.70
2018-05-26T19:31:55.259Z,21.70
2018-05-26T19:34:30.172Z,21.20
2018-05-26T19:37:04.249Z,21.20
2018-05-26T19:39:39.122Z,21.10
2018-05-26T19:42:12.728Z,21.00
2018-05-26T19:44:47.252Z,21.00
2018-05-26T19:47:21.885Z,21.00
2018-05-26T19:49:56.800Z,20.60
2018-05-26T19:52:31.960Z,20.40
2018-05-26T19:55:05.846Z,20.40
2018-05-26T19:57:40.206Z,20.40
2018-05-26T20:00:14.443Z,20.10
2018-05-26T20:02:48.379Z,20.00
2018-05-26T20:05:23.116Z,20.00
2018-05-26T20:07:57.644Z,20.10
2018-05-26T20:10:31.431Z,20.00
2018-05-26T20:13:05.038Z,20.10
2018-05-26T20:15:38.792Z,20.00
2018-05-26T20:18:12.401Z,19.80
2018-05-26T20:20:47.071Z,19.60
2018-05-26T20:23:20.681Z,19.60
2018-05-26T20:25:54.268Z,19.60
2018-05-26T20:28:28.689Z,19.60
2018-05-26T20:31:02.999Z,19.60
2018-05-26T20:33:36.621Z,19.50
2018-05-26T20:36:10.355Z,19.50
2018-05-26T20:38:45.222Z,19.50
2018-05-26T20:41:19.252Z,19.30
2018-05-26T20:43:54.068Z,19.30
2018-05-26T20:46:28.702Z,19.20
2018-05-26T20:49:03.380Z,19.10
2018-05-26T20:51:38.164Z,18.80
2018-05-26T20:54:14.603Z,18.90
2018-05-26T20:56:50.414Z,19.00
2018-05-26T20:59:24.197Z,18.90
2018-05-26T21:01:58.803Z,18.90
2018-05-26T21:04:33.603Z,18.80
2018-05-26T21:07:07.852Z,18.80
2018-05-26T21:09:42.755Z,18.80
2018-05-26T21:12:17.275Z,18.80
2018-05-26T21:14:51.768Z,18.80
2018-05-26T21:17:25.813Z,18.80
2018-05-26T21:20:00.764Z,18.80
2018-05-26T21:22:34.550Z,18.80
2018-05-26T21:25:11.629Z,18.50
2018-05-26T21:27:46.019Z,18.50
2018-05-26T21:30:21.499Z,18.20
2018-05-26T21:32:55.922Z,17.90
2018-05-26T21:35:29.696Z,17.90
2018-05-26T21:38:04.261Z,17.90
2018-05-26T21:40:38.728Z,17.90
2018-05-26T21:43:12.980Z,17.90
2018-05-26T21:45:48.032Z,17.70
2018-05-26T21:48:22.580Z,17.70
2018-05-26T21:50:56.745Z,17.70
2018-05-26T21:53:31.251Z,17.50
2018-05-26T21:56:05.209Z,17.40
2018-05-26T21:58:40.522Z,17.10
2018-05-26T22:01:14.407Z,17.10
2018-05-26T22:03:50.398Z,17.00
2018-05-26T22:06:24.996Z,17.10
2018-05-26T22:08:59.932Z,17.10
2018-05-26T22:11:34.092Z,17.10
2018-05-26T22:14:09.079Z,16.90
2018-05-26T22:16:43.486Z,16.90
2018-05-26T22:19:19.540Z,17.00
2018-05-26T22:21:53.784Z,17.00
2018-05-26T22:24:28.492Z,17.10
2018-05-26T22:27:03.439Z,17.00
2018-05-26T22:29:37.436Z,16.80
2018-05-26T22:32:11.881Z,16.70
2018-05-26T22:34:46.384Z,16.70
2018-05-26T22:37:21.611Z,16.80
2018-05-26T22:39:55.574Z,16.70
2018-05-26T22:42:30.709Z,17.00
2018-05-26T22:45:05.260Z,16.90
2018-05-26T22:47:39.284Z,16.90
2018-05-26T22:50:14.298Z,16.90
2018-05-26T22:52:48.934Z,16.90
2018-05-26T22:55:23.211Z,16.90
2018-05-26T22:57:57.488Z,16.70
2018-05-26T23:00:32.401Z,16.70
2018-05-26T23:03:07.483Z,16.60
2018-05-26T23:05:42.238Z,16.50
2018-05-26T23:08:16.371Z,16.50
2018-05-26T23:10:51.723Z,16.20
2018-05-26T23:13:26.331Z,16.20
2018-05-26T23:16:01.531Z,16.10
2018-05-26T23:18:35.898Z,16.20
2018-05-26T23:21:11.380Z,16.20
2018-05-26T23:23:46.206Z,16.20
2018-05-26T23:26:20.877Z,16.20
2018-05-26T23:28:55.527Z,16.10
2018-05-26T23:31:29.371Z,16.10
2018-05-26T23:34:04.314Z,16.20
2018-05-26T23:36:38.206Z,16.20
2018-05-26T23:39:12.780Z,16.00
2018-05-26T23:41:46.344Z,15.90
2018-05-26T23:44:21.984Z,15.90
2018-05-26T23:46:55.620Z,15.80
2018-05-26T23:49:30.554Z,15.80
2018-05-26T23:52:04.990Z,16.00
2018-05-26T23:54:38.789Z,15.90
2018-05-26T23:57:13.398Z,16.00
2018-05-26T23:59:47.312Z,16.00
